This is the latest recevied weather packets stored in our database for station/object LKPR. If no packets are shown the sender has not sent any weather packets the latest 1 day(s).
| Time | Temp. | Humidity | Pressure | Rain* | Wind** | Luminosity | Snow |
|---|---|---|---|---|---|---|---|
| 1777972682 | 20° C | 52% | - | - | 4.02 m/s, 30° | - | - |
| 1777971723 | 20° C | 52% | 1008 hPa | - | 3.13 m/s, 10° | - | - |
| 1777969923 | 18.89° C | 59% | 1008 hPa | - | 3.13 m/s, 40° | - | - |
| 1777969083 | 17.78° C | 59% | - | - | 3.13 m/s, 30° | - | - |
| 1777968123 | 17.78° C | 63% | 1008 hPa | - | 3.58 m/s, 20° | - | - |
| 1777966323 | 17.22° C | 67% | 1009 hPa | - | 2.68 m/s, 30° | - | - |
| 1777965481 | 16.11° C | 72% | - | - | 3.13 m/s, 40° | - | - |
| 1777964523 | 16.11° C | 67% | 1008 hPa | - | 2.24 m/s, 40° | - | - |
| 1777962722 | 16.11° C | 72% | 1009 hPa | - | 1.34 m/s, 350° | - | - |
| 1777961885 | 15° C | 72% | - | - | 2.24 m/s, 10° | - | - |
| 1777960923 | 15° C | 72% | 1009 hPa | - | 1.34 m/s, 10° | - | - |
| 1777959122 | 13.89° C | 76% | 1009 hPa | - | 3.13 m/s, 310° | - | - |
| 1777958283 | 13.89° C | 82% | - | - | 2.24 m/s, 280° | - | - |
| 1777957323 | 13.89° C | 82% | 1009 hPa | - | 2.68 m/s, 290° | - | - |
| 1777955523 | 12.22° C | 93% | 1009 hPa | - | 1.34 m/s, 220° | - | - |
| 1777954681 | 11.11° C | 93% | - | - | 0.89 m/s, 250° | - | - |
| 1777953723 | 11.11° C | 93% | 1009 hPa | - | 1.34 m/s, 280° | - | - |
| 1777951922 | 12.78° C | 82% | 1009 hPa | - | 0 m/s | - | - |
| 1777951081 | 12.22° C | 87% | - | - | 0.89 m/s, 0° | - | - |
| 1777950124 | 12.78° C | 82% | 1009 hPa | - | 0.89 m/s, 0° | - | - |
| 1777948323 | 12.78° C | 82% | 1009 hPa | - | 2.68 m/s, 320° | - | - |
| 1777947482 | 12.78° C | 82% | - | - | 2.24 m/s, 320° | - | - |
| 1777946523 | 12.78° C | 87% | 1009 hPa | - | 0.89 m/s, 310° | - | - |
| 1777944723 | 12.78° C | 87% | 1009 hPa | - | 0.45 m/s, 0° | - | - |
| 1777943885 | 12.78° C | 82% | - | - | 2.24 m/s, 320° | - | - |
* Rain since midnight (hover to see other rain measurements)
** Current wind speed in m/s (hover to see current wind gust speed)